Time;durP1;ratioP1;P1;durP2;ratioP2;P2;SDS_P1;SDS_P2;PMS_P1;PMS_P2;Temp;Humidity;BMP_temperature;BMP_pressure;BME280_temperature;BME280_humidity;BME280_pressure;Samples;Min_cycle;Max_cycle;Signal;HPM_P1;HPM_P2
2022/07/13 00:08:41;;;;;;;4.97;1.52;;;21.60;99.90;;;;;;20874729;28;20045;-79
2022/07/13 00:18:42;;;;;;;1.52;0.55;;;21.70;99.90;;;;;;20864699;28;20040;-78
2022/07/13 00:28:43;;;;;;;1.65;0.73;;;21.60;99.90;;;;;;20878809;28;20049;-78
2022/07/13 00:38:44;;;;;;;1.80;0.60;;;21.70;99.90;;;;;;20884544;28;20044;-79
2022/07/13 00:48:45;;;;;;;2.53;0.90;;;21.70;99.90;;;;;;20867233;28;20416;-80
2022/07/13 00:58:46;;;;;;;3.05;1.27;;;21.80;99.90;;;;;;20885575;28;20028;-80
2022/07/13 01:08:47;;;;;;;2.83;1.17;;;22.00;99.90;;;;;;20868963;28;20052;-80
2022/07/13 01:18:49;;;;;;;2.50;1.20;;;22.00;99.90;;;;;;20882310;28;20033;-79
2022/07/13 01:28:50;;;;;;;2.05;0.85;;;21.90;99.90;;;;;;20881870;28;20063;-79
2022/07/13 01:38:51;;;;;;;2.67;1.10;;;21.90;99.90;;;;;;20898192;28;20971;-79
2022/07/13 01:48:54;;;;;;;2.58;1.38;;;21.90;99.90;;;;;;20902189;28;20508;-79
2022/07/13 01:58:55;;;;;;;3.55;0.95;;;22.00;99.90;;;;;;20872868;28;20441;-79
2022/07/13 02:08:56;;;;;;;3.42;1.05;;;22.10;99.90;;;;;;20866423;28;20750;-79
2022/07/13 02:18:57;;;;;;;2.38;1.10;;;22.10;99.90;;;;;;20875249;28;20029;-79
2022/07/13 02:28:58;;;;;;;2.70;1.23;;;22.10;99.90;;;;;;20888598;28;20052;-79
2022/07/13 02:38:59;;;;;;;2.67;1.08;;;22.00;99.90;;;;;;20875472;28;20244;-79
2022/07/13 02:49:00;;;;;;;2.90;1.33;;;22.00;99.90;;;;;;20882659;28;20417;-79
2022/07/13 02:59:01;;;;;;;3.42;1.25;;;21.90;99.90;;;;;;20881009;28;20029;-79
2022/07/13 03:09:02;;;;;;;2.42;1.17;;;21.80;99.90;;;;;;20888095;28;20036;-78
2022/07/13 03:19:03;;;;;;;4.60;1.48;;;21.80;99.90;;;;;;20895619;28;20487;-78
2022/07/13 03:29:04;;;;;;;2.08;1.02;;;21.80;99.90;;;;;;20879384;28;20085;-79
2022/07/13 03:39:05;;;;;;;2.88;1.20;;;21.70;99.90;;;;;;20876106;28;20446;-79
2022/07/13 03:49:06;;;;;;;2.42;1.30;;;21.60;99.90;;;;;;20875115;28;21970;-79
2022/07/13 03:59:07;;;;;;;2.13;1.00;;;21.50;99.90;;;;;;20877922;28;20040;-79
2022/07/13 04:09:08;;;;;;;2.17;0.90;;;21.50;99.90;;;;;;20871866;28;20557;-79
2022/07/13 04:19:09;;;;;;;3.63;1.92;;;21.50;99.90;;;;;;20872042;28;20040;-79
2022/07/13 04:29:10;;;;;;;1.80;1.08;;;21.40;99.90;;;;;;20867660;28;20048;-79
2022/07/13 04:39:12;;;;;;;3.55;1.40;;;21.30;99.90;;;;;;20875645;28;20288;-79
2022/07/13 04:49:15;;;;;;;3.35;1.52;;;21.30;99.90;;;;;;20874156;28;20121;-79
2022/07/13 04:59:16;;;;;;;2.97;1.20;;;21.30;99.90;;;;;;20880523;28;20105;-79
2022/07/13 05:09:17;;;;;;;3.45;1.98;;;21.30;99.90;;;;;;20872364;28;20040;-79
2022/07/13 05:19:18;;;;;;;5.40;2.05;;;21.30;99.90;;;;;;20865571;28;20086;-79
2022/07/13 05:29:19;;;;;;;2.95;1.38;;;21.40;99.90;;;;;;20868010;28;20048;-79
2022/07/13 05:39:20;;;;;;;4.22;1.85;;;21.40;99.90;;;;;;20889506;28;20041;-79
2022/07/13 05:49:21;;;;;;;1.98;1.25;;;21.50;99.90;;;;;;20869325;28;20056;-79
2022/07/13 05:59:22;;;;;;;2.80;0.70;;;21.60;99.90;;;;;;20882429;28;20048;-79
2022/07/13 06:09:23;;;;;;;3.72;1.25;;;21.70;99.90;;;;;;20889684;28;20094;-79
2022/07/13 06:19:24;;;;;;;2.75;1.00;;;21.80;99.90;;;;;;20870220;28;20269;-79
2022/07/13 06:29:27;;;;;;;2.45;0.82;;;22.00;99.90;;;;;;20868292;28;20128;-79
2022/07/13 06:39:28;;;;;;;3.47;1.25;;;22.00;99.90;;;;;;20883635;28;20140;-79
2022/07/13 06:49:29;;;;;;;2.53;1.00;;;22.20;99.90;;;;;;20885519;28;20068;-79
2022/07/13 06:59:30;;;;;;;3.25;0.95;;;22.50;99.90;;;;;;20900850;28;20029;-79
2022/07/13 07:09:31;;;;;;;1.88;1.10;;;22.60;99.90;;;;;;20894878;28;20610;-79
2022/07/13 07:19:32;;;;;;;2.92;1.23;;;22.90;99.90;;;;;;20883937;28;20037;-79
2022/07/13 07:29:34;;;;;;;1.83;1.02;;;23.00;99.90;;;;;;20881604;28;20234;-79
2022/07/13 07:39:36;;;;;;;3.05;1.55;;;23.10;99.90;;;;;;20898864;28;20036;-79
2022/07/13 07:49:37;;;;;;;2.15;1.10;;;23.10;99.90;;;;;;20890387;28;20033;-80
2022/07/13 07:59:39;;;;;;;2.15;1.10;;;23.30;99.90;;;;;;20879349;28;20052;-81
2022/07/13 08:09:40;;;;;;;3.00;1.67;;;23.70;99.90;;;;;;20899838;28;20439;-79
2022/07/13 08:19:41;;;;;;;2.83;0.85;;;24.00;99.90;;;;;;20859770;28;20513;-77
2022/07/13 08:29:42;;;;;;;1.88;0.80;;;24.50;99.90;;;;;;20881255;28;20511;-78
2022/07/13 08:39:44;;;;;;;1.35;0.50;;;24.70;99.90;;;;;;20887146;28;20040;-78
2022/07/13 08:49:45;;;;;;;1.55;0.68;;;24.90;99.90;;;;;;20900171;28;20093;-78
2022/07/13 08:59:46;;;;;;;1.90;1.02;;;25.10;99.90;;;;;;20899218;28;20028;-78
2022/07/13 09:09:54;;;;;;;1.58;0.63;;;25.40;99.90;;;;;;20888665;28;20048;-78
2022/07/13 09:19:56;;;;;;;1.92;0.90;;;25.70;99.90;;;;;;20868483;28;20707;-77
2022/07/13 09:29:57;;;;;;;1.13;0.60;;;25.90;99.90;;;;;;20863783;28;20272;-78
2022/07/13 09:40:09;;;;;;;1.48;0.82;;;26.00;99.90;;;;;;20885891;28;20102;-78
2022/07/13 09:50:10;;;;;;;1.23;0.50;;;26.20;99.90;;;;;;20888297;28;20081;-78
2022/07/13 10:00:13;;;;;;;1.02;0.45;;;26.60;99.90;;;;;;20892110;28;20040;-78
2022/07/13 10:10:16;;;;;;;1.23;0.40;;;26.90;99.90;;;;;;20901436;28;20041;-78
2022/07/13 10:20:21;;;;;;;1.13;0.60;;;27.30;99.90;;;;;;20912443;28;20339;-78
2022/07/13 10:30:24;;;;;;;1.35;0.70;;;27.40;99.90;;;;;;20912263;28;20052;-77
2022/07/13 10:40:27;;;;;;;1.70;0.70;;;27.40;99.90;;;;;;20916326;28;20040;-78
2022/07/13 10:50:38;;;;;;;1.10;0.50;;;27.90;99.90;;;;;;20907068;28;22329;-78
2022/07/13 11:00:44;;;;;;;1.33;0.45;;;28.00;99.90;;;;;;20898411;28;20037;-78
2022/07/13 11:11:08;;;;;;;1.53;0.90;;;28.20;99.90;;;;;;20879792;28;20040;-78
2022/07/13 11:21:18;;;;;;;1.65;0.95;;;28.20;99.90;;;;;;20887939;28;20702;-78
2022/07/13 11:31:20;;;;;;;0.95;0.60;;;28.10;99.90;;;;;;20891699;28;20167;-78
2022/07/13 11:41:23;;;;;;;1.55;0.60;;;28.00;99.90;;;;;;20882455;28;20511;-79
2022/07/13 11:51:24;;;;;;;1.33;0.60;;;28.00;99.90;;;;;;20898267;28;20048;-79
2022/07/13 12:01:25;;;;;;;1.60;0.77;;;27.50;99.90;;;;;;20895263;28;20044;-78
2022/07/13 12:11:26;;;;;;;1.00;0.70;;;27.60;99.90;;;;;;20912181;28;20032;-79
2022/07/13 12:21:28;;;;;;;2.72;0.82;;;27.60;99.90;;;;;;20924110;28;20048;-78
2022/07/13 12:31:29;;;;;;;1.08;0.60;;;27.50;99.90;;;;;;20897525;28;20052;-78
2022/07/13 12:41:34;;;;;;;1.00;0.47;;;27.40;99.90;;;;;;20898275;28;20044;-78
2022/07/13 12:51:50;;;;;;;1.48;0.60;;;27.30;99.90;;;;;;20895798;28;20095;-79
2022/07/13 13:01:51;;;;;;;1.30;0.50;;;27.50;99.90;;;;;;20876572;28;20032;-78
2022/07/13 13:11:53;;;;;;;1.00;0.50;;;28.10;99.90;;;;;;20873506;28;20052;-78
2022/07/13 13:21:54;;;;;;;1.02;0.35;;;28.10;99.90;;;;;;20870464;28;20040;-78
2022/07/13 13:31:56;;;;;;;0.73;0.43;;;28.30;99.90;;;;;;20886247;28;20049;-79
2022/07/13 13:41:57;;;;;;;0.88;0.40;;;28.30;99.90;;;;;;20827003;28;20847;-78
2022/07/13 13:51:58;;;;;;;3.63;1.27;;;28.00;99.90;;;;;;20879328;28;20040;-78
2022/07/13 14:01:59;;;;;;;1.48;0.65;;;27.90;99.90;;;;;;20871194;28;20033;-78
2022/07/13 14:12:00;;;;;;;0.80;0.40;;;27.80;99.90;;;;;;20887048;28;20040;-78
2022/07/13 14:22:01;;;;;;;2.80;0.50;;;27.80;99.90;;;;;;20887557;28;20403;-78
2022/07/13 14:32:02;;;;;;;2.70;0.82;;;27.30;99.90;;;;;;20885489;28;20554;-78
2022/07/13 14:42:03;;;;;;;1.80;0.43;;;27.20;99.90;;;;;;20882579;28;20032;-78
2022/07/13 14:52:04;;;;;;;1.05;0.60;;;27.10;99.90;;;;;;20902296;28;20507;-78
2022/07/13 15:02:05;;;;;;;0.82;0.43;;;26.90;99.90;;;;;;20888235;28;20129;-78
2022/07/13 15:12:06;;;;;;;1.63;0.85;;;26.80;99.90;;;;;;20900166;28;20033;-78
2022/07/13 15:22:08;;;;;;;6.53;0.63;;;26.80;99.90;;;;;;20889927;28;20041;-78
2022/07/13 15:32:10;;;;;;;0.82;0.40;;;26.50;99.90;;;;;;20889683;28;20641;-78
2022/07/13 15:42:11;;;;;;;3.90;0.80;;;26.30;99.90;;;;;;20909168;28;20032;-78
2022/07/13 15:52:12;;;;;;;1.20;0.60;;;26.20;99.90;;;;;;20894889;28;20044;-78
2022/07/13 16:02:13;;;;;;;2.03;1.05;;;25.90;99.90;;;;;;20886735;28;20036;-78
2022/07/13 16:12:14;;;;;;;5.07;1.27;;;25.80;99.90;;;;;;20849957;28;20047;-78
2022/07/13 16:22:15;;;;;;;9.25;0.70;;;25.50;99.90;;;;;;20885929;28;20044;-78
2022/07/13 16:32:16;;;;;;;1.52;0.50;;;25.10;99.90;;;;;;20883784;28;20044;-78
2022/07/13 16:42:17;;;;;;;0.90;0.40;;;24.90;99.90;;;;;;20865501;28;20882;-78
2022/07/13 16:52:20;;;;;;;1.45;0.77;;;24.20;99.90;;;;;;20874609;28;20113;-78
2022/07/13 17:02:21;;;;;;;1.63;0.60;;;23.80;99.90;;;;;;20893656;28;20041;-78
2022/07/13 17:12:22;;;;;;;3.92;0.70;;;23.60;99.90;;;;;;20869233;28;20236;-78
2022/07/13 17:22:24;;;;;;;2.90;0.60;;;23.50;99.90;;;;;;20876136;28;20032;-79
2022/07/13 17:32:26;;;;;;;5.28;2.13;;;23.40;99.90;;;;;;20876499;28;20776;-81
2022/07/13 17:42:27;;;;;;;2.00;0.80;;;23.30;99.90;;;;;;20875967;28;20071;-80
2022/07/13 17:52:28;;;;;;;2.95;0.73;;;23.00;99.90;;;;;;20867624;28;20420;-78
2022/07/13 18:02:30;;;;;;;1.30;0.35;;;22.70;99.90;;;;;;20894221;28;20761;-78
2022/07/13 18:12:31;;;;;;;1.27;0.47;;;22.50;99.90;;;;;;20894030;28;20091;-77
2022/07/13 18:22:33;;;;;;;0.57;0.30;;;22.20;99.90;;;;;;20913839;28;20067;-77
2022/07/13 18:32:36;;;;;;;5.55;0.70;;;22.00;99.90;;;;;;20891586;28;20048;-78
2022/07/13 18:42:37;;;;;;;0.80;0.30;;;21.70;99.90;;;;;;20901108;28;20093;-78
2022/07/13 18:52:38;;;;;;;1.52;0.32;;;21.60;99.90;;;;;;20875807;28;20036;-78
2022/07/13 19:02:39;;;;;;;0.90;0.30;;;21.30;99.90;;;;;;20875121;28;20197;-78
2022/07/13 19:12:40;;;;;;;1.33;0.40;;;21.00;99.90;;;;;;20864922;28;20465;-78
2022/07/13 19:22:41;;;;;;;0.60;0.35;;;20.80;99.90;;;;;;20870451;28;20068;-78
2022/07/13 19:32:42;;;;;;;2.20;0.60;;;20.50;99.90;;;;;;20872851;28;20037;-78
2022/07/13 19:42:43;;;;;;;1.67;0.82;;;20.20;99.90;;;;;;20868419;28;20088;-78
2022/07/13 19:52:44;;;;;;;4.03;1.15;;;20.00;99.90;;;;;;20875982;28;20048;-78
2022/07/13 20:02:48;;;;;;;1.33;0.80;;;19.80;99.90;;;;;;20864555;28;20040;-78
2022/07/13 20:12:49;;;;;;;1.60;0.88;;;19.70;99.90;;;;;;20862809;28;20114;-79
2022/07/13 20:22:50;;;;;;;0.70;0.20;;;19.50;99.90;;;;;;20868765;28;20041;-78
2022/07/13 20:32:51;;;;;;;1.52;0.60;;;19.40;99.90;;;;;;20867212;28;20615;-79
2022/07/13 20:42:54;;;;;;;1.60;0.57;;;19.30;99.90;;;;;;20870280;28;20431;-79
2022/07/13 20:52:55;;;;;;;1.88;0.50;;;19.20;99.90;;;;;;20886952;28;20076;-79
2022/07/13 21:02:56;;;;;;;1.73;0.50;;;18.90;99.90;;;;;;20880595;28;20033;-79
2022/07/13 21:12:57;;;;;;;1.33;0.50;;;18.80;99.90;;;;;;20852454;28;20448;-79
2022/07/13 21:22:58;;;;;;;1.15;0.38;;;18.60;99.90;;;;;;20861152;28;20123;-79
2022/07/13 21:32:59;;;;;;;1.38;0.57;;;18.50;99.90;;;;;;20855416;28;20033;-79
2022/07/13 21:43:01;;;;;;;2.88;0.95;;;18.30;99.90;;;;;;20858192;28;20063;-80
2022/07/13 21:53:02;;;;;;;1.92;1.20;;;18.20;99.90;;;;;;20872825;28;20934;-80
2022/07/13 22:03:03;;;;;;;4.60;1.88;;;18.10;99.90;;;;;;20866330;28;20391;-80
2022/07/13 22:13:42;;;;;;;0.63;0.20;;;18.00;99.90;;;;;;20869290;28;20163;-80
2022/07/13 22:24:20;;;;;;;1.23;0.32;;;17.80;99.90;;;;;;20856021;28;20686;-80
2022/07/13 22:34:40;;;;;;;;;;;17.70;99.90;;;;;;20867170;28;20362;-80
2022/07/13 22:45:18;;;;;;;1.70;0.60;;;17.60;99.90;;;;;;20884859;28;19939;-80
2022/07/13 22:55:57;;;;;;;1.73;0.47;;;17.50;99.90;;;;;;20869224;28;21281;-80
2022/07/13 23:06:36;;;;;;;1.15;0.30;;;17.40;99.90;;;;;;20861655;28;20697;-80
2022/07/13 23:17:16;;;;;;;1.50;0.40;;;17.30;99.90;;;;;;20892385;28;20744;-80
2022/07/13 23:27:55;;;;;;;1.10;0.30;;;17.30;99.90;;;;;;20888193;28;20177;-80
2022/07/13 23:37:56;;;;;;;0.82;0.25;;;17.20;99.90;;;;;;20862175;28;20043;-80
2022/07/13 23:47:57;;;;;;;1.10;0.55;;;17.10;99.90;;;;;;20887682;28;21753;-80
2022/07/13 23:57:58;;;;;;;1.27;0.60;;;17.10;99.90;;;;;;20886423;28;20052;-80
